aviador You're here:

LFBO Decoded Metar

TOULOUSE BLAGNAC in FRANCE
Report Time2017-10-17 11:00:00
UTC Time2017-10-17 11:13:42
Flight Rules vfr VFR
Wind120° at 18 Gusting to 28 kt
W.Decomp.*RWY 14: 16.9 kt HW 6.2 kt LCW
W.Rank120° ranks 10
Current wind is above 120° avg. (10.0)
Visibility9999 m
Phenomena:N/A
Clouds:N/A
Expected CloudBase > 4,000 ft AGL from Temp-Dew spread
CeilingNone
Temp22°C (ISA +8)
Dew Point12°C (53% RH)
AAT16.1°C
QNH1020 hPa
Density Alt1,388 ft
Elevation502 ft
Report Wrong Elevation
Raw Report
LFBO 171100Z AUTO 12018G28KT CAVOK 22/12 Q1020 NOSIG=

Extra information for LFBO:More info

Metar Taf Metar & Taf Last 4 Metars F.Rules Stats Wind Profile Meteogram Temp Stats Airport Information Weather charts Add Link Nearby VenuesMetar ALERT Operation Metar Decoded Social comments